メインページ
METAR-TAF:

METAR-TAF

空港 :

横田飛行場

横田, 日本

緯度: 35-45N, 経度: 139-21E, 海抜: 139m

現時点の気象観測

当レポートは14分前の11:56(UTC)に作成
北西の風 4kt
気温 17°C
湿度 77%
気圧 1013 hPa
視程: 16.1km
高度16000ftの雲はほとんどない

METAR: RJTY 161156Z AUTO 32004KT 10SM FEW160 17/13 A2990 RMK AO2 SLP127 T01650130 10194 20165 56007 FZRANO $

時間: 21:10 (12:10 UTC)

予報

当レポートは7時間10分前の05:00(UTC)に作成
予報は16日の 05時(UTC)から 17日の 11時(UTC)まで有効
北/北東の風 9kt
視程10km以上
高度5000ftの雲はほとんどない
高度20000ftの雲は散在している
16日の 10時(UTC)から 16日の 16時(UTC)まで一時的に
高度3000ftの雲は散在している
高度16000ftの千切れ雲あり

TAF: RJTY 160500Z 1605/1711 02009KT 9999 FEW050 SCT200 QNH2984INS TEMPO 1610/1616 SCT030 BKN160 TX21/1607Z TN13/1620Z

4,000以上の空港の気象観測と天気予報(METAR報とTAF報)

利用可能な観測所は地図上に黄色い丸と赤い丸で示す。

丸の上にカーソルを重ねると観測所名を参照できる。

次にクリックすると気象観測と天気予報を参照できる。

マップの切り替え:黒色「×」印の緑ボタンをクリックして拡大、「-」印の緑ボタンをクリックして縮小、緑色の三角印をクリックして隣りの地図に切り替え


METAR-TAF: